createdAt,value
2022-12-28T00:01:14.066Z,145.43
2022-12-28T00:06:08.829Z,161.02
2022-12-28T00:11:12.184Z,176.00
2022-12-28T00:16:26.790Z,225.25
2022-12-28T00:21:19.781Z,183.63
2022-12-28T00:31:07.463Z,229.57
2022-12-28T00:36:02.130Z,208.50
2022-12-28T00:40:55.727Z,226.90
2022-12-28T00:45:49.322Z,289.60
2022-12-28T00:50:43.964Z,231.68
2022-12-28T00:55:37.378Z,235.95
2022-12-28T01:00:32.749Z,251.68
2022-12-28T01:05:25.827Z,372.40
2022-12-28T01:10:19.250Z,338.20
2022-12-28T01:15:13.381Z,282.05
2022-12-28T01:20:11.021Z,341.83
2022-12-28T01:25:05.443Z,314.98
2022-12-28T01:29:59.226Z,361.55
2022-12-28T01:34:53.196Z,318.67
2022-12-28T01:39:46.660Z,405.63
2022-12-28T01:44:47.870Z,314.27
2022-12-28T01:49:54.980Z,557.58
2022-12-28T01:55:03.972Z,540.13
2022-12-28T02:00:04.937Z,769.92
2022-12-28T02:05:05.395Z,725.92
2022-12-28T02:10:41.336Z,491.17
2022-12-28T02:15:17.104Z,578.28
2022-12-28T02:20:14.940Z,587.67
2022-12-28T02:25:14.292Z,646.58
2022-12-28T02:30:14.143Z,578.92
2022-12-28T02:35:26.022Z,693.58
2022-12-28T02:40:25.585Z,455.73
2022-12-28T02:45:59.731Z,418.30
2022-12-28T02:56:23.166Z,854.85
2022-12-28T03:01:31.517Z,698.08
2022-12-28T03:07:07.112Z,480.88
2022-12-28T03:12:06.588Z,695.10
2022-12-28T03:17:19.187Z,530.13
2022-12-28T03:22:31.548Z,440.55
2022-12-28T03:27:44.873Z,535.05
2022-12-28T03:32:42.095Z,217.38
2022-12-28T03:37:44.175Z,310.05
2022-12-28T03:43:04.624Z,571.40
2022-12-28T03:47:58.591Z,320.33
2022-12-28T03:52:53.550Z,381.13
2022-12-28T03:57:46.956Z,336.45
2022-12-28T04:02:46.053Z,156.18
2022-12-28T04:07:39.870Z,189.38
2022-12-28T04:12:33.561Z,402.67
2022-12-28T04:17:53.758Z,176.77
2022-12-28T04:22:48.146Z,274.85
2022-12-28T04:27:42.294Z,378.92
2022-12-28T04:32:51.714Z,457.60
2022-12-28T04:37:45.320Z,491.23
2022-12-28T04:42:39.157Z,597.03
2022-12-28T04:47:33.624Z,819.88
2022-12-28T04:52:27.792Z,630.78
2022-12-28T04:57:21.817Z,382.73
2022-12-28T05:02:15.600Z,597.55
2022-12-28T05:07:12.721Z,445.52
2022-12-28T05:12:07.684Z,410.83
2022-12-28T05:17:01.949Z,742.85
2022-12-28T05:21:55.840Z,343.48
2022-12-28T05:26:50.058Z,302.13
2022-12-28T05:31:43.405Z,658.55
2022-12-28T05:36:38.857Z,777.60
2022-12-28T05:41:31.576Z,338.35
2022-12-28T05:46:30.816Z,486.88
2022-12-28T05:51:26.538Z,538.35
2022-12-28T05:56:42.667Z,349.67
2022-12-28T06:01:39.747Z,511.75
2022-12-28T06:06:34.585Z,196.70
2022-12-28T06:11:29.339Z,302.75
2022-12-28T06:16:25.940Z,368.15
2022-12-28T06:21:23.975Z,380.92
2022-12-28T06:26:19.590Z,291.73
2022-12-28T06:31:17.164Z,192.32
2022-12-28T06:36:26.234Z,288.65
2022-12-28T06:41:20.564Z,334.17
2022-12-28T06:46:15.468Z,374.25
2022-12-28T06:51:17.318Z,373.45
2022-12-28T06:56:24.877Z,312.45
2022-12-28T07:01:24.125Z,325.75
2022-12-28T07:06:19.444Z,214.43
2022-12-28T07:11:19.633Z,466.08
2022-12-28T07:16:21.200Z,374.73
2022-12-28T07:21:17.302Z,467.45
2022-12-28T07:26:13.710Z,493.20
2022-12-28T07:31:09.771Z,503.08
2022-12-28T07:36:04.284Z,174.00
2022-12-28T07:41:05.347Z,324.27
2022-12-28T07:46:22.314Z,251.95
2022-12-28T07:51:37.919Z,222.95
2022-12-28T08:01:27.363Z,173.60
2022-12-28T08:06:23.512Z,278.52
2022-12-28T08:11:39.373Z,412.75
2022-12-28T08:16:35.341Z,616.05
2022-12-28T08:21:31.053Z,299.98
2022-12-28T08:26:49.389Z,181.02
2022-12-28T08:31:44.642Z,373.75
2022-12-28T08:36:38.348Z,457.35
2022-12-28T08:41:32.654Z,378.52
2022-12-28T08:46:34.013Z,309.02
2022-12-28T08:51:36.364Z,225.23
2022-12-28T08:56:36.589Z,306.80
2022-12-28T09:01:43.027Z,224.52
2022-12-28T09:06:43.380Z,570.05
2022-12-28T09:11:39.033Z,271.23
2022-12-28T09:16:32.784Z,142.05
2022-12-28T09:21:29.323Z,171.88
2022-12-28T09:26:25.306Z,128.68
2022-12-28T09:31:18.709Z,113.78
2022-12-28T09:36:12.705Z,119.20
2022-12-28T09:41:27.130Z,100.47
2022-12-28T09:46:21.540Z,90.43
2022-12-28T09:51:16.060Z,89.47
2022-12-28T09:56:29.822Z,93.20
2022-12-28T10:01:23.707Z,97.63
2022-12-28T10:06:26.195Z,103.80
2022-12-28T10:11:23.174Z,99.22
2022-12-28T10:16:20.696Z,88.78
2022-12-28T10:21:14.374Z,87.85
2022-12-28T10:26:07.457Z,90.05
2022-12-28T10:31:07.765Z,91.65
2022-12-28T10:36:01.587Z,90.85
2022-12-28T10:45:58.346Z,95.07
2022-12-28T10:50:55.313Z,95.38
2022-12-28T10:55:49.788Z,90.63
2022-12-28T11:00:52.295Z,87.85
2022-12-28T11:05:56.502Z,91.75
2022-12-28T11:10:58.402Z,90.57
2022-12-28T11:15:52.525Z,100.80
2022-12-28T11:20:47.843Z,93.60
2022-12-28T11:25:42.353Z,96.28
2022-12-28T11:30:36.613Z,105.82
2022-12-28T11:35:33.099Z,99.45
2022-12-28T11:40:44.243Z,92.75
2022-12-28T11:45:56.676Z,86.55
2022-12-28T11:50:53.555Z,87.60
2022-12-28T11:56:29.394Z,81.68
2022-12-28T12:01:28.543Z,82.55
2022-12-28T12:06:36.898Z,86.05
2022-12-28T12:11:33.969Z,95.18
2022-12-28T12:17:06.225Z,102.18
2022-12-28T12:22:11.001Z,90.47
2022-12-28T12:27:15.932Z,90.90
2022-12-28T12:32:44.683Z,90.05
2022-12-28T12:37:57.313Z,91.68
2022-12-28T12:43:31.459Z,77.33
2022-12-28T12:48:36.821Z,76.03
2022-12-28T12:53:30.320Z,77.40
2022-12-28T12:58:36.141Z,71.60
2022-12-28T13:03:34.867Z,73.65
2022-12-28T13:08:39.500Z,79.28
2022-12-28T13:13:36.046Z,90.95
2022-12-28T13:18:47.852Z,84.32
2022-12-28T13:23:46.292Z,94.70
2022-12-28T13:29:05.130Z,91.65
2022-12-28T13:34:01.075Z,86.22
2022-12-28T13:39:13.232Z,91.47
2022-12-28T13:44:33.761Z,91.55
2022-12-28T13:49:29.131Z,92.50
2022-12-28T13:54:25.920Z,89.57
2022-12-28T13:59:24.236Z,97.20
2022-12-28T14:09:36.321Z,99.90
2022-12-28T14:14:29.836Z,96.65
2022-12-28T14:19:23.573Z,99.38
2022-12-28T14:24:18.170Z,94.78
2022-12-28T14:29:16.366Z,99.15
2022-12-28T14:34:22.108Z,110.15
2022-12-28T14:39:45.725Z,100.32
2022-12-28T14:44:59.521Z,108.50
2022-12-28T14:49:59.634Z,99.97
2022-12-28T14:54:54.666Z,109.60
2022-12-28T15:00:03.734Z,112.15
2022-12-28T15:05:00.788Z,106.35
2022-12-28T15:09:55.053Z,114.70
2022-12-28T15:15:11.727Z,103.63
2022-12-28T15:20:08.988Z,114.60
2022-12-28T15:25:03.065Z,117.00
2022-12-28T15:30:05.366Z,99.80
2022-12-28T15:35:00.182Z,104.65
2022-12-28T15:39:54.132Z,107.68
2022-12-28T15:44:49.452Z,101.45
2022-12-28T15:49:42.476Z,110.43
2022-12-28T15:54:36.635Z,105.07
2022-12-28T15:59:30.736Z,113.80
2022-12-28T16:04:24.772Z,117.32
2022-12-28T16:09:18.933Z,116.30
2022-12-28T16:14:15.314Z,114.78
2022-12-28T16:19:09.787Z,101.20
2022-12-28T16:24:03.779Z,103.35
2022-12-28T16:28:58.748Z,104.25
2022-12-28T16:33:58.184Z,112.05
2022-12-28T16:38:51.852Z,111.78
2022-12-28T16:48:39.223Z,109.53
2022-12-28T16:53:36.318Z,105.38
2022-12-28T16:58:30.145Z,117.32
2022-12-28T17:03:24.336Z,119.10
2022-12-28T17:08:18.766Z,110.25
2022-12-28T17:13:11.717Z,119.18
2022-12-28T17:18:05.629Z,123.07
2022-12-28T17:22:59.646Z,115.03
2022-12-28T17:27:53.655Z,114.25
2022-12-28T17:32:47.661Z,112.55
2022-12-28T17:37:41.074Z,118.45
2022-12-28T17:42:34.846Z,112.22
2022-12-28T17:47:28.815Z,118.57
2022-12-28T17:52:24.166Z,131.35
2022-12-28T17:57:18.181Z,141.98
2022-12-28T18:07:08.215Z,117.13
2022-12-28T18:12:02.130Z,115.45
2022-12-28T18:16:56.080Z,116.00
2022-12-28T18:21:50.252Z,110.47
2022-12-28T18:26:44.110Z,112.18
2022-12-28T18:31:38.394Z,120.63
2022-12-28T18:36:31.939Z,108.72
2022-12-28T18:41:29.018Z,114.53
2022-12-28T18:46:28.134Z,102.78
2022-12-28T18:51:22.295Z,106.13
2022-12-28T18:56:17.691Z,114.53
2022-12-28T19:01:55.874Z,102.47
2022-12-28T19:06:33.436Z,100.53
2022-12-28T19:11:28.219Z,98.65
2022-12-28T19:16:30.269Z,114.53
2022-12-28T19:21:29.982Z,104.20
2022-12-28T19:26:24.178Z,99.95
2022-12-28T19:31:17.691Z,110.15
2022-12-28T19:36:11.451Z,101.38
2022-12-28T19:41:25.950Z,102.30
2022-12-28T19:46:28.187Z,100.63
2022-12-28T19:51:27.156Z,371.83
2022-12-28T19:56:23.961Z,116.78
2022-12-28T20:01:23.350Z,121.97
2022-12-28T20:06:23.072Z,123.78
2022-12-28T20:11:16.742Z,112.50
2022-12-28T20:16:11.699Z,119.25
2022-12-28T20:21:23.088Z,119.57
2022-12-28T20:26:17.802Z,116.50
2022-12-28T20:31:13.692Z,126.13
2022-12-28T20:36:10.329Z,123.50
2022-12-28T20:41:35.865Z,114.18
2022-12-28T20:46:29.916Z,123.47
2022-12-28T20:51:24.574Z,110.07
2022-12-28T20:56:19.024Z,118.43
2022-12-28T21:01:14.372Z,114.93
2022-12-28T21:06:08.485Z,115.03
2022-12-28T21:15:55.507Z,116.03
2022-12-28T21:20:51.346Z,113.93
2022-12-28T21:25:45.173Z,121.70
2022-12-28T21:30:39.333Z,112.00
2022-12-28T21:35:34.733Z,107.43
2022-12-28T21:40:29.387Z,113.53
2022-12-28T21:45:23.247Z,113.88
2022-12-28T21:50:17.293Z,113.70
2022-12-28T21:55:30.638Z,108.70
2022-12-28T22:00:42.950Z,107.13
2022-12-28T22:05:45.802Z,102.28
2022-12-28T22:10:58.285Z,106.70
2022-12-28T22:15:54.115Z,101.03
2022-12-28T22:20:48.717Z,107.82
2022-12-28T22:25:42.599Z,107.38
2022-12-28T22:30:39.047Z,109.70
2022-12-28T22:35:32.893Z,104.03
2022-12-28T22:45:21.024Z,105.17
2022-12-28T22:50:16.454Z,107.68
2022-12-28T22:55:10.353Z,96.18
2022-12-28T23:00:05.428Z,112.50
2022-12-28T23:05:00.664Z,124.15
2022-12-28T23:09:53.815Z,113.95
2022-12-28T23:20:19.248Z,121.72
2022-12-28T23:25:32.978Z,151.48
2022-12-28T23:30:26.747Z,128.27
2022-12-28T23:35:22.138Z,119.43
2022-12-28T23:40:17.739Z,117.95
2022-12-28T23:45:15.503Z,117.30
2022-12-28T23:50:14.952Z,115.25
2022-12-28T23:55:08.991Z,115.85
